sensor_id;sensor_type;location;lat;lon;timestamp;temperature;humidity
42617;DHT22;28250;52.320;0.360;2023-05-13T00:00:46;9.50;99.90
42617;DHT22;28250;52.320;0.360;2023-05-13T00:03:12;9.40;99.90
42617;DHT22;28250;52.320;0.360;2023-05-13T00:05:38;9.40;99.90
42617;DHT22;28250;52.320;0.360;2023-05-13T00:08:05;9.40;99.90
42617;DHT22;28250;52.320;0.360;2023-05-13T00:10:34;9.40;99.90
42617;DHT22;28250;52.320;0.360;2023-05-13T00:13:01;9.50;99.90
42617;DHT22;28250;52.320;0.360;2023-05-13T00:15:27;9.40;99.90
42617;DHT22;28250;52.320;0.360;2023-05-13T00:17:53;9.50;99.90
42617;DHT22;28250;52.320;0.360;2023-05-13T00:20:19;9.40;99.90
42617;DHT22;28250;52.320;0.360;2023-05-13T00:22:45;9.40;99.90
42617;DHT22;28250;52.320;0.360;2023-05-13T00:25:11;9.40;99.90
42617;DHT22;28250;52.320;0.360;2023-05-13T00:27:37;9.40;99.90
42617;DHT22;28250;52.320;0.360;2023-05-13T00:30:04;9.40;99.90
42617;DHT22;28250;52.320;0.360;2023-05-13T00:32:30;9.40;99.90
42617;DHT22;28250;52.320;0.360;2023-05-13T00:34:56;9.40;99.90
42617;DHT22;28250;52.320;0.360;2023-05-13T00:37:23;9.40;99.90
42617;DHT22;28250;52.320;0.360;2023-05-13T00:39:49;9.40;99.90
42617;DHT22;28250;52.320;0.360;2023-05-13T00:42:15;9.40;99.90
42617;DHT22;28250;52.320;0.360;2023-05-13T00:44:41;9.40;99.90
42617;DHT22;28250;52.320;0.360;2023-05-13T00:47:09;9.40;99.90
42617;DHT22;28250;52.320;0.360;2023-05-13T00:49:37;9.40;99.90
42617;DHT22;28250;52.320;0.360;2023-05-13T00:52:03;9.40;99.90
42617;DHT22;28250;52.320;0.360;2023-05-13T00:54:30;9.40;99.90
42617;DHT22;28250;52.320;0.360;2023-05-13T00:56:56;9.40;99.90
42617;DHT22;28250;52.320;0.360;2023-05-13T00:59:26;9.40;99.90
42617;DHT22;28250;52.320;0.360;2023-05-13T01:02:06;9.40;99.90
42617;DHT22;28250;52.320;0.360;2023-05-13T01:05:02;9.40;99.90
42617;DHT22;28250;52.320;0.360;2023-05-13T01:10:32;9.40;99.90
42617;DHT22;28250;52.320;0.360;2023-05-13T01:13:08;9.40;99.90
42617;DHT22;28250;52.320;0.360;2023-05-13T01:15:41;9.40;99.90
42617;DHT22;28250;52.320;0.360;2023-05-13T01:18:18;9.40;99.90
42617;DHT22;28250;52.320;0.360;2023-05-13T01:20:46;9.40;99.90
42617;DHT22;28250;52.320;0.360;2023-05-13T01:23:12;9.40;99.90
42617;DHT22;28250;52.320;0.360;2023-05-13T01:25:39;9.30;99.90
42617;DHT22;28250;52.320;0.360;2023-05-13T01:28:07;9.40;99.90
42617;DHT22;28250;52.320;0.360;2023-05-13T01:30:37;9.40;99.90
42617;DHT22;28250;52.320;0.360;2023-05-13T01:33:04;9.40;99.90
42617;DHT22;28250;52.320;0.360;2023-05-13T01:35:31;9.30;99.90
42617;DHT22;28250;52.320;0.360;2023-05-13T01:37:59;9.30;99.90
42617;DHT22;28250;52.320;0.360;2023-05-13T01:40:26;9.40;99.90
42617;DHT22;28250;52.320;0.360;2023-05-13T01:42:52;9.30;99.90
42617;DHT22;28250;52.320;0.360;2023-05-13T01:45:18;9.30;99.90
42617;DHT22;28250;52.320;0.360;2023-05-13T01:47:44;9.30;99.90
42617;DHT22;28250;52.320;0.360;2023-05-13T01:50:11;9.30;99.90
42617;DHT22;28250;52.320;0.360;2023-05-13T01:52:38;9.30;99.90
42617;DHT22;28250;52.320;0.360;2023-05-13T01:55:05;9.30;99.90
42617;DHT22;28250;52.320;0.360;2023-05-13T01:57:32;9.30;99.90
42617;DHT22;28250;52.320;0.360;2023-05-13T01:59:58;9.30;99.90
42617;DHT22;28250;52.320;0.360;2023-05-13T02:02:24;9.30;99.90
42617;DHT22;28250;52.320;0.360;2023-05-13T02:04:50;9.30;99.90
42617;DHT22;28250;52.320;0.360;2023-05-13T02:07:16;9.30;99.90
42617;DHT22;28250;52.320;0.360;2023-05-13T02:09:44;9.30;99.90
42617;DHT22;28250;52.320;0.360;2023-05-13T02:12:10;9.30;99.90
42617;DHT22;28250;52.320;0.360;2023-05-13T02:14:36;9.30;99.90
42617;DHT22;28250;52.320;0.360;2023-05-13T02:17:03;9.20;99.90
42617;DHT22;28250;52.320;0.360;2023-05-13T02:19:29;9.30;99.90
42617;DHT22;28250;52.320;0.360;2023-05-13T02:21:55;9.30;99.90
42617;DHT22;28250;52.320;0.360;2023-05-13T02:24:21;9.20;99.90
42617;DHT22;28250;52.320;0.360;2023-05-13T02:26:47;9.20;99.90
42617;DHT22;28250;52.320;0.360;2023-05-13T02:29:13;9.20;99.90
42617;DHT22;28250;52.320;0.360;2023-05-13T02:31:39;9.20;99.90
42617;DHT22;28250;52.320;0.360;2023-05-13T02:34:08;9.20;99.90
42617;DHT22;28250;52.320;0.360;2023-05-13T02:36:34;9.20;99.90
42617;DHT22;28250;52.320;0.360;2023-05-13T02:39:02;9.20;99.90
42617;DHT22;28250;52.320;0.360;2023-05-13T02:41:28;9.20;99.90
42617;DHT22;28250;52.320;0.360;2023-05-13T02:43:54;9.20;99.90
42617;DHT22;28250;52.320;0.360;2023-05-13T02:46:20;9.20;99.90
42617;DHT22;28250;52.320;0.360;2023-05-13T02:48:46;9.20;99.90
42617;DHT22;28250;52.320;0.360;2023-05-13T02:51:12;9.20;99.90
42617;DHT22;28250;52.320;0.360;2023-05-13T02:53:39;9.20;99.90
42617;DHT22;28250;52.320;0.360;2023-05-13T02:56:07;9.20;99.90
42617;DHT22;28250;52.320;0.360;2023-05-13T02:58:34;9.20;99.90
42617;DHT22;28250;52.320;0.360;2023-05-13T03:01:00;9.20;99.90
42617;DHT22;28250;52.320;0.360;2023-05-13T03:03:27;9.20;99.90
42617;DHT22;28250;52.320;0.360;2023-05-13T03:05:53;9.20;99.90
42617;DHT22;28250;52.320;0.360;2023-05-13T03:08:19;9.20;99.90
42617;DHT22;28250;52.320;0.360;2023-05-13T03:10:45;9.20;99.90
42617;DHT22;28250;52.320;0.360;2023-05-13T03:13:11;9.20;99.90
42617;DHT22;28250;52.320;0.360;2023-05-13T03:15:37;9.10;99.90
42617;DHT22;28250;52.320;0.360;2023-05-13T03:18:03;9.20;99.90
42617;DHT22;28250;52.320;0.360;2023-05-13T03:20:30;9.20;99.90
42617;DHT22;28250;52.320;0.360;2023-05-13T03:22:56;9.20;99.90
42617;DHT22;28250;52.320;0.360;2023-05-13T03:25:22;9.20;99.90
42617;DHT22;28250;52.320;0.360;2023-05-13T03:27:53;9.20;99.90
42617;DHT22;28250;52.320;0.360;2023-05-13T03:30:22;9.20;99.90
42617;DHT22;28250;52.320;0.360;2023-05-13T03:33:05;9.20;99.90
42617;DHT22;28250;52.320;0.360;2023-05-13T03:35:31;9.20;99.90
42617;DHT22;28250;52.320;0.360;2023-05-13T03:37:57;9.20;99.90
42617;DHT22;28250;52.320;0.360;2023-05-13T03:40:24;9.10;99.90
42617;DHT22;28250;52.320;0.360;2023-05-13T03:42:51;9.10;99.90
42617;DHT22;28250;52.320;0.360;2023-05-13T03:45:19;9.20;99.90
42617;DHT22;28250;52.320;0.360;2023-05-13T03:47:49;9.10;99.90
42617;DHT22;28250;52.320;0.360;2023-05-13T03:50:16;9.10;99.90
42617;DHT22;28250;52.320;0.360;2023-05-13T03:52:44;9.10;99.90
42617;DHT22;28250;52.320;0.360;2023-05-13T03:55:11;9.10;99.90
42617;DHT22;28250;52.320;0.360;2023-05-13T03:57:45;9.20;99.90
42617;DHT22;28250;52.320;0.360;2023-05-13T04:00:13;9.10;99.90
42617;DHT22;28250;52.320;0.360;2023-05-13T04:02:43;9.10;99.90
42617;DHT22;28250;52.320;0.360;2023-05-13T04:05:11;9.10;99.90
42617;DHT22;28250;52.320;0.360;2023-05-13T04:07:38;9.10;99.90
42617;DHT22;28250;52.320;0.360;2023-05-13T04:10:06;9.10;99.90
42617;DHT22;28250;52.320;0.360;2023-05-13T04:12:33;9.20;99.90
42617;DHT22;28250;52.320;0.360;2023-05-13T04:14:59;9.10;99.90
42617;DHT22;28250;52.320;0.360;2023-05-13T04:17:26;9.10;99.90
42617;DHT22;28250;52.320;0.360;2023-05-13T04:19:52;9.10;99.90
42617;DHT22;28250;52.320;0.360;2023-05-13T04:22:20;9.10;99.90
42617;DHT22;28250;52.320;0.360;2023-05-13T04:24:48;9.10;99.90
42617;DHT22;28250;52.320;0.360;2023-05-13T04:27:16;9.10;99.90
42617;DHT22;28250;52.320;0.360;2023-05-13T04:29:43;9.20;99.90
42617;DHT22;28250;52.320;0.360;2023-05-13T04:32:10;9.10;99.90
42617;DHT22;28250;52.320;0.360;2023-05-13T04:34:36;9.10;99.90
42617;DHT22;28250;52.320;0.360;2023-05-13T04:37:02;9.10;99.90
42617;DHT22;28250;52.320;0.360;2023-05-13T04:39:29;9.10;99.90
42617;DHT22;28250;52.320;0.360;2023-05-13T04:41:55;9.10;99.90
42617;DHT22;28250;52.320;0.360;2023-05-13T04:44:21;9.10;99.90
42617;DHT22;28250;52.320;0.360;2023-05-13T04:46:48;9.10;99.90
42617;DHT22;28250;52.320;0.360;2023-05-13T04:49:14;9.10;99.90
42617;DHT22;28250;52.320;0.360;2023-05-13T04:51:40;9.10;99.90
42617;DHT22;28250;52.320;0.360;2023-05-13T04:54:06;9.10;99.90
42617;DHT22;28250;52.320;0.360;2023-05-13T04:56:33;9.10;99.90
42617;DHT22;28250;52.320;0.360;2023-05-13T04:58:59;9.10;99.90
42617;DHT22;28250;52.320;0.360;2023-05-13T05:01:26;9.10;99.90
42617;DHT22;28250;52.320;0.360;2023-05-13T05:03:52;9.10;99.90
42617;DHT22;28250;52.320;0.360;2023-05-13T05:06:18;9.10;99.90
42617;DHT22;28250;52.320;0.360;2023-05-13T05:08:47;9.10;99.90
42617;DHT22;28250;52.320;0.360;2023-05-13T05:11:13;9.10;99.90
42617;DHT22;28250;52.320;0.360;2023-05-13T05:13:40;9.10;99.90
42617;DHT22;28250;52.320;0.360;2023-05-13T05:16:06;9.10;99.90
42617;DHT22;28250;52.320;0.360;2023-05-13T05:18:33;9.20;99.90
42617;DHT22;28250;52.320;0.360;2023-05-13T05:21:01;9.10;99.90
42617;DHT22;28250;52.320;0.360;2023-05-13T05:23:28;9.10;99.90
42617;DHT22;28250;52.320;0.360;2023-05-13T05:25:55;9.10;99.90
42617;DHT22;28250;52.320;0.360;2023-05-13T05:28:21;9.10;99.90
42617;DHT22;28250;52.320;0.360;2023-05-13T05:30:49;9.20;99.90
42617;DHT22;28250;52.320;0.360;2023-05-13T05:33:20;9.10;99.90
42617;DHT22;28250;52.320;0.360;2023-05-13T05:35:47;9.10;99.90
42617;DHT22;28250;52.320;0.360;2023-05-13T05:38:16;9.20;99.90
42617;DHT22;28250;52.320;0.360;2023-05-13T05:40:43;9.20;99.90
42617;DHT22;28250;52.320;0.360;2023-05-13T05:43:10;9.20;99.90
42617;DHT22;28250;52.320;0.360;2023-05-13T05:45:37;9.20;99.90
42617;DHT22;28250;52.320;0.360;2023-05-13T05:48:05;9.20;99.90
42617;DHT22;28250;52.320;0.360;2023-05-13T05:50:32;9.20;99.90
42617;DHT22;28250;52.320;0.360;2023-05-13T05:53:01;9.30;99.90
42617;DHT22;28250;52.320;0.360;2023-05-13T05:55:28;9.30;99.90
42617;DHT22;28250;52.320;0.360;2023-05-13T05:57:57;9.30;99.90
42617;DHT22;28250;52.320;0.360;2023-05-13T06:00:29;9.30;99.90
42617;DHT22;28250;52.320;0.360;2023-05-13T06:02:55;9.30;99.90
42617;DHT22;28250;52.320;0.360;2023-05-13T06:05:22;9.30;99.90
42617;DHT22;28250;52.320;0.360;2023-05-13T06:07:48;9.40;99.90
42617;DHT22;28250;52.320;0.360;2023-05-13T06:10:14;9.40;99.90
42617;DHT22;28250;52.320;0.360;2023-05-13T06:12:40;9.40;99.90
42617;DHT22;28250;52.320;0.360;2023-05-13T06:15:08;9.40;99.90
42617;DHT22;28250;52.320;0.360;2023-05-13T06:17:38;9.40;99.90
42617;DHT22;28250;52.320;0.360;2023-05-13T06:20:05;9.40;99.90
42617;DHT22;28250;52.320;0.360;2023-05-13T06:22:31;9.40;99.90
42617;DHT22;28250;52.320;0.360;2023-05-13T06:24:57;9.40;99.90
42617;DHT22;28250;52.320;0.360;2023-05-13T06:27:24;9.40;99.90
42617;DHT22;28250;52.320;0.360;2023-05-13T06:29:50;9.50;99.90
42617;DHT22;28250;52.320;0.360;2023-05-13T06:32:18;9.40;99.90
42617;DHT22;28250;52.320;0.360;2023-05-13T06:34:46;9.40;99.90
42617;DHT22;28250;52.320;0.360;2023-05-13T06:37:13;9.50;99.90
42617;DHT22;28250;52.320;0.360;2023-05-13T06:39:39;9.50;99.90
42617;DHT22;28250;52.320;0.360;2023-05-13T06:42:06;9.50;99.90
42617;DHT22;28250;52.320;0.360;2023-05-13T06:44:38;9.50;99.90
42617;DHT22;28250;52.320;0.360;2023-05-13T06:47:05;9.50;99.90
42617;DHT22;28250;52.320;0.360;2023-05-13T06:49:32;9.50;99.90
42617;DHT22;28250;52.320;0.360;2023-05-13T06:51:58;9.60;99.90
42617;DHT22;28250;52.320;0.360;2023-05-13T06:54:24;9.60;99.90
42617;DHT22;28250;52.320;0.360;2023-05-13T06:56:55;9.50;99.90
42617;DHT22;28250;52.320;0.360;2023-05-13T06:59:21;9.60;99.90
42617;DHT22;28250;52.320;0.360;2023-05-13T07:01:47;9.60;99.90
42617;DHT22;28250;52.320;0.360;2023-05-13T07:04:13;9.60;99.90
42617;DHT22;28250;52.320;0.360;2023-05-13T07:06:39;9.60;99.90
42617;DHT22;28250;52.320;0.360;2023-05-13T07:09:05;9.60;99.90
42617;DHT22;28250;52.320;0.360;2023-05-13T07:11:34;9.60;99.90
42617;DHT22;28250;52.320;0.360;2023-05-13T07:14:01;9.70;99.90
42617;DHT22;28250;52.320;0.360;2023-05-13T07:16:27;9.70;99.90
42617;DHT22;28250;52.320;0.360;2023-05-13T07:18:53;9.70;99.90
42617;DHT22;28250;52.320;0.360;2023-05-13T07:21:19;9.70;99.90
42617;DHT22;28250;52.320;0.360;2023-05-13T07:23:46;9.80;99.90
42617;DHT22;28250;52.320;0.360;2023-05-13T07:26:12;9.80;99.90
42617;DHT22;28250;52.320;0.360;2023-05-13T07:28:38;9.80;99.90
42617;DHT22;28250;52.320;0.360;2023-05-13T07:31:04;9.80;99.90
42617;DHT22;28250;52.320;0.360;2023-05-13T07:33:30;9.80;99.90
42617;DHT22;28250;52.320;0.360;2023-05-13T07:35:57;9.80;99.90
42617;DHT22;28250;52.320;0.360;2023-05-13T07:38:23;9.80;99.90
42617;DHT22;28250;52.320;0.360;2023-05-13T07:40:49;9.90;99.90
42617;DHT22;28250;52.320;0.360;2023-05-13T07:43:15;9.90;99.90
42617;DHT22;28250;52.320;0.360;2023-05-13T07:45:49;10.00;99.90
42617;DHT22;28250;52.320;0.360;2023-05-13T07:48:16;10.00;99.90
42617;DHT22;28250;52.320;0.360;2023-05-13T07:50:45;10.00;99.90
42617;DHT22;28250;52.320;0.360;2023-05-13T07:53:12;10.00;99.90
42617;DHT22;28250;52.320;0.360;2023-05-13T07:55:38;10.10;99.90
42617;DHT22;28250;52.320;0.360;2023-05-13T07:58:04;10.10;99.90
42617;DHT22;28250;52.320;0.360;2023-05-13T08:00:31;10.10;99.90
42617;DHT22;28250;52.320;0.360;2023-05-13T08:02:57;10.10;99.90
42617;DHT22;28250;52.320;0.360;2023-05-13T08:05:23;10.00;99.90
42617;DHT22;28250;52.320;0.360;2023-05-13T08:07:49;10.00;99.90
42617;DHT22;28250;52.320;0.360;2023-05-13T08:10:15;10.00;99.90
42617;DHT22;28250;52.320;0.360;2023-05-13T08:12:41;10.00;99.90
42617;DHT22;28250;52.320;0.360;2023-05-13T08:15:08;10.00;99.90
42617;DHT22;28250;52.320;0.360;2023-05-13T08:17:36;10.10;99.90
42617;DHT22;28250;52.320;0.360;2023-05-13T08:20:02;10.10;99.90
42617;DHT22;28250;52.320;0.360;2023-05-13T08:22:28;10.20;99.90
42617;DHT22;28250;52.320;0.360;2023-05-13T08:24:54;10.30;99.90
42617;DHT22;28250;52.320;0.360;2023-05-13T08:27:20;10.30;99.90
42617;DHT22;28250;52.320;0.360;2023-05-13T08:29:46;10.40;99.90
42617;DHT22;28250;52.320;0.360;2023-05-13T08:32:12;10.30;99.90
42617;DHT22;28250;52.320;0.360;2023-05-13T08:34:38;10.40;99.90
42617;DHT22;28250;52.320;0.360;2023-05-13T08:37:04;10.40;99.90
42617;DHT22;28250;52.320;0.360;2023-05-13T08:39:30;10.40;99.90
42617;DHT22;28250;52.320;0.360;2023-05-13T08:41:57;10.30;99.90
42617;DHT22;28250;52.320;0.360;2023-05-13T08:44:24;10.30;99.90
42617;DHT22;28250;52.320;0.360;2023-05-13T08:50:05;10.40;99.90
42617;DHT22;28250;52.320;0.360;2023-05-13T08:52:31;10.50;99.90
42617;DHT22;28250;52.320;0.360;2023-05-13T08:54:58;10.50;99.90
42617;DHT22;28250;52.320;0.360;2023-05-13T08:57:26;10.40;99.90
42617;DHT22;28250;52.320;0.360;2023-05-13T08:59:52;10.50;99.90
42617;DHT22;28250;52.320;0.360;2023-05-13T09:02:18;10.60;99.90
42617;DHT22;28250;52.320;0.360;2023-05-13T09:04:51;10.70;99.90
42617;DHT22;28250;52.320;0.360;2023-05-13T09:07:18;10.70;99.90
42617;DHT22;28250;52.320;0.360;2023-05-13T09:09:44;10.50;99.90
42617;DHT22;28250;52.320;0.360;2023-05-13T09:12:10;10.60;99.90
42617;DHT22;28250;52.320;0.360;2023-05-13T09:14:37;10.50;99.90
42617;DHT22;28250;52.320;0.360;2023-05-13T09:17:03;10.60;99.90
42617;DHT22;28250;52.320;0.360;2023-05-13T09:19:29;10.60;99.90
42617;DHT22;28250;52.320;0.360;2023-05-13T09:21:55;10.60;99.90
42617;DHT22;28250;52.320;0.360;2023-05-13T09:24:22;10.70;99.90
42617;DHT22;28250;52.320;0.360;2023-05-13T09:26:50;10.70;99.90
42617;DHT22;28250;52.320;0.360;2023-05-13T09:29:18;10.90;99.90
42617;DHT22;28250;52.320;0.360;2023-05-13T09:31:57;10.90;99.90
42617;DHT22;28250;52.320;0.360;2023-05-13T09:34:32;10.90;99.90
42617;DHT22;28250;52.320;0.360;2023-05-13T09:37:00;11.00;99.90
42617;DHT22;28250;52.320;0.360;2023-05-13T09:39:32;11.00;99.90
42617;DHT22;28250;52.320;0.360;2023-05-13T09:42:00;11.10;99.90
42617;DHT22;28250;52.320;0.360;2023-05-13T09:44:26;11.20;99.90
42617;DHT22;28250;52.320;0.360;2023-05-13T09:46:53;11.30;99.90
42617;DHT22;28250;52.320;0.360;2023-05-13T09:49:25;11.30;99.90
42617;DHT22;28250;52.320;0.360;2023-05-13T09:51:51;11.40;99.90
42617;DHT22;28250;52.320;0.360;2023-05-13T09:54:17;11.40;99.90
42617;DHT22;28250;52.320;0.360;2023-05-13T09:56:43;11.40;99.90
42617;DHT22;28250;52.320;0.360;2023-05-13T09:59:09;11.40;99.90
42617;DHT22;28250;52.320;0.360;2023-05-13T10:01:35;11.50;99.90
42617;DHT22;28250;52.320;0.360;2023-05-13T10:04:02;11.50;99.90
42617;DHT22;28250;52.320;0.360;2023-05-13T10:06:30;11.40;99.90
42617;DHT22;28250;52.320;0.360;2023-05-13T10:08:58;11.10;99.90
42617;DHT22;28250;52.320;0.360;2023-05-13T10:11:29;11.20;99.90
42617;DHT22;28250;52.320;0.360;2023-05-13T10:13:59;11.30;99.90
42617;DHT22;28250;52.320;0.360;2023-05-13T10:16:29;11.30;99.90
42617;DHT22;28250;52.320;0.360;2023-05-13T10:18:56;11.40;99.90
42617;DHT22;28250;52.320;0.360;2023-05-13T10:21:26;11.50;99.90
42617;DHT22;28250;52.320;0.360;2023-05-13T10:23:52;11.50;99.90
42617;DHT22;28250;52.320;0.360;2023-05-13T10:26:22;11.50;99.90
42617;DHT22;28250;52.320;0.360;2023-05-13T10:28:49;11.50;99.90
42617;DHT22;28250;52.320;0.360;2023-05-13T10:31:16;11.60;99.90
42617;DHT22;28250;52.320;0.360;2023-05-13T10:33:42;11.80;99.90
42617;DHT22;28250;52.320;0.360;2023-05-13T10:39:22;11.30;99.90
42617;DHT22;28250;52.320;0.360;2023-05-13T10:44:57;11.40;99.90
42617;DHT22;28250;52.320;0.360;2023-05-13T10:47:23;11.70;99.90
42617;DHT22;28250;52.320;0.360;2023-05-13T10:49:50;11.70;99.90
42617;DHT22;28250;52.320;0.360;2023-05-13T10:52:17;11.70;99.90
42617;DHT22;28250;52.320;0.360;2023-05-13T10:54:59;11.80;99.90
42617;DHT22;28250;52.320;0.360;2023-05-13T10:57:36;11.80;99.90
42617;DHT22;28250;52.320;0.360;2023-05-13T11:00:16;11.60;99.90
42617;DHT22;28250;52.320;0.360;2023-05-13T11:02:43;11.80;99.90
42617;DHT22;28250;52.320;0.360;2023-05-13T11:05:18;11.60;99.90
42617;DHT22;28250;52.320;0.360;2023-05-13T11:07:54;11.80;99.90
42617;DHT22;28250;52.320;0.360;2023-05-13T11:10:28;11.80;99.90
42617;DHT22;28250;52.320;0.360;2023-05-13T11:13:07;12.00;99.90
42617;DHT22;28250;52.320;0.360;2023-05-13T11:15:44;12.10;99.90
42617;DHT22;28250;52.320;0.360;2023-05-13T11:18:12;12.10;99.90
42617;DHT22;28250;52.320;0.360;2023-05-13T11:20:38;12.20;99.90
42617;DHT22;28250;52.320;0.360;2023-05-13T11:23:04;11.90;99.90
42617;DHT22;28250;52.320;0.360;2023-05-13T11:25:33;12.00;99.90
42617;DHT22;28250;52.320;0.360;2023-05-13T11:27:59;11.90;99.90
42617;DHT22;28250;52.320;0.360;2023-05-13T11:30:26;11.90;99.90
42617;DHT22;28250;52.320;0.360;2023-05-13T11:32:59;12.10;99.90
42617;DHT22;28250;52.320;0.360;2023-05-13T11:35:27;12.10;99.90
42617;DHT22;28250;52.320;0.360;2023-05-13T11:37:55;12.10;99.90
42617;DHT22;28250;52.320;0.360;2023-05-13T11:40:32;12.20;99.90
42617;DHT22;28250;52.320;0.360;2023-05-13T11:42:59;12.40;99.90
42617;DHT22;28250;52.320;0.360;2023-05-13T11:45:27;12.20;99.90
42617;DHT22;28250;52.320;0.360;2023-05-13T11:47:53;12.50;99.90
42617;DHT22;28250;52.320;0.360;2023-05-13T11:50:29;12.30;99.90
42617;DHT22;28250;52.320;0.360;2023-05-13T11:52:59;12.20;99.90
42617;DHT22;28250;52.320;0.360;2023-05-13T11:55:28;12.40;99.90
42617;DHT22;28250;52.320;0.360;2023-05-13T11:57:54;12.30;99.90
42617;DHT22;28250;52.320;0.360;2023-05-13T12:00:28;12.40;99.90
42617;DHT22;28250;52.320;0.360;2023-05-13T12:02:56;12.30;99.90
42617;DHT22;28250;52.320;0.360;2023-05-13T12:05:23;12.40;99.90
42617;DHT22;28250;52.320;0.360;2023-05-13T12:07:51;12.40;99.90
42617;DHT22;28250;52.320;0.360;2023-05-13T12:10:22;12.20;99.90
42617;DHT22;28250;52.320;0.360;2023-05-13T12:12:49;12.30;99.90
42617;DHT22;28250;52.320;0.360;2023-05-13T12:15:17;12.30;99.90
42617;DHT22;28250;52.320;0.360;2023-05-13T12:17:45;12.20;99.90
42617;DHT22;28250;52.320;0.360;2023-05-13T12:20:19;12.20;99.90
42617;DHT22;28250;52.320;0.360;2023-05-13T12:30:53;12.60;99.90
42617;DHT22;28250;52.320;0.360;2023-05-13T12:33:32;12.90;99.90
42617;DHT22;28250;52.320;0.360;2023-05-13T12:36:23;12.90;99.90
42617;DHT22;28250;52.320;0.360;2023-05-13T12:38:57;12.80;99.90
42617;DHT22;28250;52.320;0.360;2023-05-13T12:41:31;12.90;99.90
42617;DHT22;28250;52.320;0.360;2023-05-13T12:44:11;12.90;99.90
42617;DHT22;28250;52.320;0.360;2023-05-13T12:46:49;12.90;99.90
42617;DHT22;28250;52.320;0.360;2023-05-13T12:49:16;13.00;99.90
42617;DHT22;28250;52.320;0.360;2023-05-13T12:51:42;13.00;99.90
42617;DHT22;28250;52.320;0.360;2023-05-13T12:54:09;13.00;99.90
42617;DHT22;28250;52.320;0.360;2023-05-13T12:56:36;12.90;99.90
42617;DHT22;28250;52.320;0.360;2023-05-13T12:59:04;13.20;99.90
42617;DHT22;28250;52.320;0.360;2023-05-13T13:01:31;13.30;99.90
42617;DHT22;28250;52.320;0.360;2023-05-13T13:03:57;13.40;99.90
42617;DHT22;28250;52.320;0.360;2023-05-13T13:06:23;13.10;99.90
42617;DHT22;28250;52.320;0.360;2023-05-13T13:08:49;13.10;99.90
42617;DHT22;28250;52.320;0.360;2023-05-13T13:11:15;13.20;99.90
42617;DHT22;28250;52.320;0.360;2023-05-13T13:13:47;13.30;99.90
42617;DHT22;28250;52.320;0.360;2023-05-13T13:16:14;13.30;99.90
42617;DHT22;28250;52.320;0.360;2023-05-13T13:18:40;13.30;99.90
42617;DHT22;28250;52.320;0.360;2023-05-13T13:21:08;13.20;99.90
42617;DHT22;28250;52.320;0.360;2023-05-13T13:23:34;13.10;99.90
42617;DHT22;28250;52.320;0.360;2023-05-13T13:26:00;12.90;99.90
42617;DHT22;28250;52.320;0.360;2023-05-13T13:28:27;12.80;99.90
42617;DHT22;28250;52.320;0.360;2023-05-13T13:30:53;13.00;99.90
42617;DHT22;28250;52.320;0.360;2023-05-13T13:33:19;13.00;99.90
42617;DHT22;28250;52.320;0.360;2023-05-13T13:35:47;13.10;99.90
42617;DHT22;28250;52.320;0.360;2023-05-13T13:38:14;13.00;99.90
42617;DHT22;28250;52.320;0.360;2023-05-13T13:40:40;13.10;99.90
42617;DHT22;28250;52.320;0.360;2023-05-13T13:43:07;13.30;99.90
42617;DHT22;28250;52.320;0.360;2023-05-13T13:45:34;13.20;99.90
42617;DHT22;28250;52.320;0.360;2023-05-13T13:48:01;13.20;99.90
42617;DHT22;28250;52.320;0.360;2023-05-13T13:50:27;13.10;99.90
42617;DHT22;28250;52.320;0.360;2023-05-13T13:52:54;12.90;99.90
42617;DHT22;28250;52.320;0.360;2023-05-13T13:55:21;13.10;99.90
42617;DHT22;28250;52.320;0.360;2023-05-13T13:57:47;13.40;99.90
42617;DHT22;28250;52.320;0.360;2023-05-13T14:00:14;13.40;99.90
42617;DHT22;28250;52.320;0.360;2023-05-13T14:02:42;13.40;99.90
42617;DHT22;28250;52.320;0.360;2023-05-13T14:05:08;13.40;99.90
42617;DHT22;28250;52.320;0.360;2023-05-13T14:07:35;13.30;99.90
42617;DHT22;28250;52.320;0.360;2023-05-13T14:10:05;13.30;99.90
42617;DHT22;28250;52.320;0.360;2023-05-13T14:12:32;13.30;99.90
42617;DHT22;28250;52.320;0.360;2023-05-13T14:14:58;13.70;99.90
42617;DHT22;28250;52.320;0.360;2023-05-13T14:17:24;13.60;99.90
42617;DHT22;28250;52.320;0.360;2023-05-13T14:19:50;13.30;99.90
42617;DHT22;28250;52.320;0.360;2023-05-13T14:22:18;13.10;99.90
42617;DHT22;28250;52.320;0.360;2023-05-13T14:24:46;13.20;99.90
42617;DHT22;28250;52.320;0.360;2023-05-13T14:27:12;13.50;99.90
42617;DHT22;28250;52.320;0.360;2023-05-13T14:29:38;13.40;99.90
42617;DHT22;28250;52.320;0.360;2023-05-13T14:32:05;13.20;99.90
42617;DHT22;28250;52.320;0.360;2023-05-13T14:34:32;13.10;99.90
42617;DHT22;28250;52.320;0.360;2023-05-13T14:36:58;13.30;99.90
42617;DHT22;28250;52.320;0.360;2023-05-13T14:39:24;13.50;99.90
42617;DHT22;28250;52.320;0.360;2023-05-13T14:41:50;13.40;99.90
42617;DHT22;28250;52.320;0.360;2023-05-13T14:44:16;13.40;99.90
42617;DHT22;28250;52.320;0.360;2023-05-13T14:46:42;13.30;99.90
42617;DHT22;28250;52.320;0.360;2023-05-13T14:49:08;13.10;99.90
42617;DHT22;28250;52.320;0.360;2023-05-13T14:51:34;13.10;99.90
42617;DHT22;28250;52.320;0.360;2023-05-13T14:54:01;13.00;99.90
42617;DHT22;28250;52.320;0.360;2023-05-13T14:56:28;13.30;99.90
42617;DHT22;28250;52.320;0.360;2023-05-13T14:58:54;13.30;99.90
42617;DHT22;28250;52.320;0.360;2023-05-13T15:01:20;13.40;99.90
42617;DHT22;28250;52.320;0.360;2023-05-13T15:03:46;13.20;99.90
42617;DHT22;28250;52.320;0.360;2023-05-13T15:06:12;13.30;99.90
42617;DHT22;28250;52.320;0.360;2023-05-13T15:08:38;13.20;99.90
42617;DHT22;28250;52.320;0.360;2023-05-13T15:11:04;13.30;99.90
42617;DHT22;28250;52.320;0.360;2023-05-13T15:13:30;13.20;99.90
42617;DHT22;28250;52.320;0.360;2023-05-13T15:16:01;13.40;99.90
42617;DHT22;28250;52.320;0.360;2023-05-13T15:18:28;13.20;99.90
42617;DHT22;28250;52.320;0.360;2023-05-13T15:20:55;13.00;99.90
42617;DHT22;28250;52.320;0.360;2023-05-13T15:23:21;13.00;99.90
42617;DHT22;28250;52.320;0.360;2023-05-13T15:25:47;13.10;99.90
42617;DHT22;28250;52.320;0.360;2023-05-13T15:28:13;13.10;99.90
42617;DHT22;28250;52.320;0.360;2023-05-13T15:30:39;13.00;99.90
42617;DHT22;28250;52.320;0.360;2023-05-13T15:33:07;12.90;99.90
42617;DHT22;28250;52.320;0.360;2023-05-13T15:35:33;12.90;99.90
42617;DHT22;28250;52.320;0.360;2023-05-13T15:37:59;13.00;99.90
42617;DHT22;28250;52.320;0.360;2023-05-13T15:40:25;13.10;99.90
42617;DHT22;28250;52.320;0.360;2023-05-13T15:42:51;12.90;99.90
42617;DHT22;28250;52.320;0.360;2023-05-13T15:45:17;12.90;99.90
42617;DHT22;28250;52.320;0.360;2023-05-13T15:47:43;12.90;99.90
42617;DHT22;28250;52.320;0.360;2023-05-13T15:50:10;13.10;99.90
42617;DHT22;28250;52.320;0.360;2023-05-13T15:52:36;13.10;99.90
42617;DHT22;28250;52.320;0.360;2023-05-13T15:55:04;13.10;99.90
42617;DHT22;28250;52.320;0.360;2023-05-13T15:57:31;12.90;99.90
42617;DHT22;28250;52.320;0.360;2023-05-13T15:59:57;12.80;99.90